Hyundai Bangkok — 3EIN6 — position and weather

sailwx.info

Track history (hours):
 
Tides and Currents Weather Stations Pressure Air Temp Water Temp Dewpoint Dewpoint Depression Visibility Wind Speed Wind Dir Waves Ship Positions

Hyundai Bangkok

Last reported at 2017-Nov-14 04:40 UTC. Time now 2017-Nov-17 17:48 UTC.
Position N 22°48' E 120°01'.

Length 303 m; draft 11.9 m.

Type: Cargo ship. MMSI: 372340000.

Date/timePositionNaut miles runAvg speedWind from/ knotsBaromVisibWave heightAir tempDewpointWater temp
2017-Nov-14 04:40N 22°48' E 120°01'319.5
2017-Nov-14 04:30N 22°45' E 120°03'1019.3
2017-Nov-14 04:00N 22°37' E 120°09'816.7
2017-Nov-14 03:30N 22°33' E 120°16'2 4.6
2017-Nov-14 03:00N 22°34' E 120°19'0 0.0
2017-Nov-14 02:28N 22°34' E 120°19'0 0.0
2017-Nov-14 01:55N 22°34' E 120°19'0 0.0
2017-Nov-14 01:25N 22°34' E 120°19'0 0.0
2017-Nov-14 00:55N 22°34' E 120°19'0 0.0
2017-Nov-14 00:28N 22°34' E 120°19'0 0.0
2017-Nov-13 22:46N 22°34' E 120°19'0 0.0
2017-Nov-13 22:16N 22°34' E 120°19'0 0.0
2017-Nov-13 21:52N 22°34' E 120°19'27312.5
2017-Nov-12 23:58N 22°14' E 115°24'919.2
2017-Nov-12 23:30N 22°14' E 115°15'1019.3
2017-Nov-12 23:00N 22°14' E 115°04'1019.2
2017-Nov-12 22:30N 22°16' E 114°54'1019.5
2017-Nov-12 22:00N 22°19' E 114°44'1020.0
2017-Nov-12 21:30N 22°22' E 114°34'917.6
2017-Nov-12 21:00N 22°28' E 114°27'510.1
2017-Nov-12 20:30N 22°32' E 114°24'714.5
2017-Nov-12 20:00N 22°34' E 114°16'1 0.1
2017-Nov-12 09:25N 22°34' E 114°15'0 0.0
2017-Nov-12 02:59N 22°34' E 114°15'2 4.3
2017-Nov-12 02:29N 22°34' E 114°18'715.3
2017-Nov-12 02:01N 22°31' E 114°25'611.4
2017-Nov-12 01:30N 22°26' E 114°28'917.6
2017-Nov-12 01:00N 22°17' E 114°27'815.4
2017-Nov-12 00:30N 22°10' E 114°24'612.2
2017-Nov-11 23:59N 22°07' E 114°17'1312.8
2017-Nov-11 23:00N 22°15' E 114°07'3 0.3
2017-Nov-11 11:33N 22°18' E 114°06'312.5
2017-Nov-11 11:20N 22°16' E 114°07'412.1
2017-Nov-11 10:59N 22°13' E 114°10'3 6.3
2017-Nov-11 10:30N 22°10' E 114°12'4 5.5
2017-Nov-11 09:45N 22°09' E 114°17'2 7.1
2017-Nov-11 09:28N 22°09' E 114°19'1 1.7
2017-Nov-11 08:59N 22°09' E 114°20'1 1.8
2017-Nov-11 08:30N 22°08' E 114°19'5 9.6
2017-Nov-11 08:00N 22°05' E 114°24'714.4
2017-Nov-11 07:30N 21°58' E 114°23'611.8
2017-Nov-11 06:58N 21°52' E 114°22'612.2
2017-Nov-11 06:28N 21°46' E 114°22'511.2
2017-Nov-11 06:00N 21°41' E 114°21'  
Track history (hours):
 
Tides and Currents Weather Stations Pressure Air Temp Water Temp Dewpoint Dewpoint Depression Visibility Wind Speed Wind Dir Waves Ship Positions

Hyundai Bangkok

Last reported at 2017-Nov-14 04:40 UTC. Time now 2017-Nov-17 17:48 UTC.
Position N 22°48' E 120°01'.

Length 303 m; draft 11.9 m.

Type: Cargo ship. MMSI: 372340000.

Date/timePositionNaut miles runAvg speedWind from/ knotsBaromVisibWave heightAir tempDewpointWater temp
2017-Nov-14 04:40N 22°48' E 120°01'319.5
2017-Nov-14 04:30N 22°45' E 120°03'1019.3
2017-Nov-14 04:00N 22°37' E 120°09'816.7
2017-Nov-14 03:30N 22°33' E 120°16'2 4.6
2017-Nov-14 03:00N 22°34' E 120°19'0 0.0
2017-Nov-14 02:28N 22°34' E 120°19'0 0.0
2017-Nov-14 01:55N 22°34' E 120°19'0 0.0
2017-Nov-14 01:25N 22°34' E 120°19'0 0.0
2017-Nov-14 00:55N 22°34' E 120°19'0 0.0
2017-Nov-14 00:28N 22°34' E 120°19'0 0.0
2017-Nov-13 22:46N 22°34' E 120°19'0 0.0
2017-Nov-13 22:16N 22°34' E 120°19'0 0.0
2017-Nov-13 21:52N 22°34' E 120°19'27312.5
2017-Nov-12 23:58N 22°14' E 115°24'919.2
2017-Nov-12 23:30N 22°14' E 115°15'1019.3
2017-Nov-12 23:00N 22°14' E 115°04'1019.2
2017-Nov-12 22:30N 22°16' E 114°54'1019.5
2017-Nov-12 22:00N 22°19' E 114°44'1020.0
2017-Nov-12 21:30N 22°22' E 114°34'917.6
2017-Nov-12 21:00N 22°28' E 114°27'510.1
2017-Nov-12 20:30N 22°32' E 114°24'714.5
2017-Nov-12 20:00N 22°34' E 114°16'1 0.1
2017-Nov-12 09:25N 22°34' E 114°15'0 0.0
2017-Nov-12 02:59N 22°34' E 114°15'2 4.3
2017-Nov-12 02:29N 22°34' E 114°18'715.3
2017-Nov-12 02:01N 22°31' E 114°25'611.4
2017-Nov-12 01:30N 22°26' E 114°28'917.6
2017-Nov-12 01:00N 22°17' E 114°27'815.4
2017-Nov-12 00:30N 22°10' E 114°24'612.2
2017-Nov-11 23:59N 22°07' E 114°17'1312.8
2017-Nov-11 23:00N 22°15' E 114°07'3 0.3
2017-Nov-11 11:33N 22°18' E 114°06'312.5
2017-Nov-11 11:20N 22°16' E 114°07'412.1
2017-Nov-11 10:59N 22°13' E 114°10'3 6.3
2017-Nov-11 10:30N 22°10' E 114°12'4 5.5
2017-Nov-11 09:45N 22°09' E 114°17'2 7.1
2017-Nov-11 09:28N 22°09' E 114°19'1 1.7
2017-Nov-11 08:59N 22°09' E 114°20'1 1.8
2017-Nov-11 08:30N 22°08' E 114°19'5 9.6
2017-Nov-11 08:00N 22°05' E 114°24'714.4
2017-Nov-11 07:30N 21°58' E 114°23'611.8
2017-Nov-11 06:58N 21°52' E 114°22'612.2
2017-Nov-11 06:28N 21°46' E 114°22'511.2
2017-Nov-11 06:00N 21°41' E 114°21'  

Dump ship's entire track history